createdAt,value
2022-08-10T00:05:52.946Z,18.71
2022-08-10T00:11:25.371Z,18.70
2022-08-10T00:16:56.417Z,18.67
2022-08-10T00:22:27.637Z,18.62
2022-08-10T00:28:03.108Z,18.55
2022-08-10T00:33:34.984Z,18.49
2022-08-10T00:39:07.289Z,18.47
2022-08-10T00:44:46.606Z,18.44
2022-08-10T00:50:20.838Z,18.42
2022-08-10T00:57:12.513Z,18.35
2022-08-10T01:02:08.357Z,18.32
2022-08-10T01:08:07.839Z,18.31
2022-08-10T01:13:38.748Z,18.28
2022-08-10T01:19:24.051Z,18.33
2022-08-10T01:25:01.083Z,18.35
2022-08-10T01:30:33.153Z,18.34
2022-08-10T01:36:18.723Z,18.34
2022-08-10T01:41:52.355Z,18.30
2022-08-10T01:47:45.819Z,18.25
2022-08-10T01:53:22.820Z,18.21
2022-08-10T01:59:03.225Z,18.19
2022-08-10T02:04:36.797Z,18.18
2022-08-10T02:10:11.430Z,18.17
2022-08-10T02:16:01.620Z,18.11
2022-08-10T02:21:33.621Z,18.08
2022-08-10T02:27:06.019Z,18.05
2022-08-10T02:32:38.770Z,18.03
2022-08-10T02:38:09.946Z,17.99
2022-08-10T02:45:21.566Z,17.94
2022-08-10T02:49:43.562Z,17.88
2022-08-10T02:55:27.182Z,17.84
2022-08-10T03:01:00.272Z,17.85
2022-08-10T03:06:37.494Z,17.81
2022-08-10T03:12:35.897Z,17.75
2022-08-10T03:18:02.817Z,17.71
2022-08-10T03:23:34.190Z,17.67
2022-08-10T03:29:06.118Z,17.65
2022-08-10T03:34:37.539Z,17.62
2022-08-10T03:40:09.667Z,17.64
2022-08-10T03:45:48.595Z,17.65
2022-08-10T03:51:27.089Z,17.62
2022-08-10T03:56:57.992Z,17.60
2022-08-10T04:02:42.172Z,17.56
2022-08-10T04:08:19.619Z,17.52
2022-08-10T04:13:50.966Z,17.46
2022-08-10T04:19:22.469Z,17.46
2022-08-10T04:24:57.708Z,17.44
2022-08-10T04:30:29.379Z,17.43
2022-08-10T04:36:01.312Z,17.45
2022-08-10T04:41:33.056Z,17.43
2022-08-10T04:47:04.287Z,17.48
2022-08-10T04:52:36.415Z,17.51
2022-08-10T04:58:07.460Z,17.51
2022-08-10T05:04:34.028Z,17.49
2022-08-10T05:09:29.280Z,17.46
2022-08-10T05:15:00.574Z,17.42
2022-08-10T05:20:31.707Z,17.40
2022-08-10T05:26:02.857Z,17.44
2022-08-10T05:31:34.076Z,17.45
2022-08-10T05:37:06.700Z,17.45
2022-08-10T05:42:57.930Z,17.52
2022-08-10T05:48:55.837Z,17.59
2022-08-10T05:54:20.132Z,17.72
2022-08-10T06:00:30.915Z,17.87
2022-08-10T06:05:48.614Z,18.06
2022-08-10T06:12:24.558Z,18.28
2022-08-10T06:17:13.827Z,18.56
2022-08-10T06:22:44.862Z,18.84
2022-08-10T06:28:17.312Z,19.05
2022-08-10T06:33:48.706Z,19.24
2022-08-10T06:39:36.458Z,19.40
2022-08-10T06:45:13.554Z,19.55
2022-08-10T06:50:58.183Z,19.78
2022-08-10T06:56:35.887Z,20.03
2022-08-10T07:02:14.898Z,20.28
2022-08-10T07:07:47.734Z,20.44
2022-08-10T07:14:16.843Z,20.63
2022-08-10T07:19:12.024Z,20.83
2022-08-10T07:24:44.429Z,21.00
2022-08-10T07:30:15.344Z,21.25
2022-08-10T07:35:48.110Z,21.49
2022-08-10T07:41:20.674Z,21.67
2022-08-10T07:46:53.006Z,21.78
2022-08-10T07:52:24.330Z,21.98
2022-08-10T07:57:57.158Z,22.16
2022-08-10T08:03:30.176Z,22.33
2022-08-10T08:09:01.924Z,22.51
2022-08-10T08:14:34.326Z,22.72
2022-08-10T08:20:07.487Z,22.90
2022-08-10T08:25:39.081Z,23.05
2022-08-10T08:31:10.204Z,23.24
2022-08-10T08:36:41.908Z,23.36
2022-08-10T08:42:28.443Z,23.48
2022-08-10T08:48:23.628Z,23.62
2022-08-10T08:54:20.561Z,23.77
2022-08-10T09:00:02.117Z,23.98
2022-08-10T09:05:58.366Z,24.12
2022-08-10T09:11:49.169Z,24.25
2022-08-10T09:17:37.591Z,24.42
2022-08-10T09:23:14.944Z,24.56
2022-08-10T09:28:46.293Z,24.67
2022-08-10T09:36:25.389Z,24.76
2022-08-10T09:41:04.170Z,24.89
2022-08-10T09:46:46.397Z,24.69
2022-08-10T09:52:59.227Z,24.72
2022-08-10T09:58:50.633Z,25.03
2022-08-10T10:04:50.647Z,25.19
2022-08-10T10:10:30.938Z,25.21
2022-08-10T10:16:33.309Z,25.39
2022-08-10T10:22:35.117Z,25.58
2022-08-10T10:34:51.250Z,24.61
2022-08-10T10:40:24.581Z,24.82
2022-08-10T10:46:23.522Z,25.32
2022-08-10T10:52:03.213Z,25.69
2022-08-10T10:57:58.467Z,25.75
2022-08-10T11:04:09.734Z,25.88
2022-08-10T11:10:32.105Z,25.87
2022-08-10T11:16:23.016Z,25.94
2022-08-10T11:22:19.262Z,25.87
2022-08-10T11:27:53.335Z,25.96
2022-08-10T11:34:11.326Z,26.28
2022-08-10T11:39:49.464Z,26.74
2022-08-10T11:45:35.346Z,26.97
2022-08-10T11:51:12.031Z,27.12
2022-08-10T11:56:49.315Z,27.14
2022-08-10T12:02:22.905Z,27.26
2022-08-10T12:10:01.775Z,27.40
2022-08-10T12:14:28.661Z,27.44
2022-08-10T12:20:07.427Z,27.52
2022-08-10T12:25:56.552Z,27.58
2022-08-10T12:31:41.400Z,27.67
2022-08-10T12:37:12.166Z,27.39
2022-08-10T12:44:03.785Z,27.41
2022-08-10T12:49:04.170Z,27.52
2022-08-10T12:54:37.093Z,27.62
2022-08-10T13:00:09.912Z,27.70
2022-08-10T13:05:57.562Z,27.71
2022-08-10T13:12:35.041Z,27.76
2022-08-10T13:17:32.819Z,27.75
2022-08-10T13:23:27.186Z,27.75
2022-08-10T13:29:01.026Z,27.76
2022-08-10T13:34:43.678Z,27.76
2022-08-10T13:40:16.941Z,27.68
2022-08-10T13:45:50.146Z,27.61
2022-08-10T13:51:53.957Z,27.53
2022-08-10T13:57:38.395Z,27.48
2022-08-10T14:03:18.958Z,27.42
2022-08-10T14:09:11.758Z,27.35
2022-08-10T14:14:43.634Z,27.27
2022-08-10T14:20:20.883Z,27.21
2022-08-10T14:25:56.589Z,27.12
2022-08-10T14:31:30.977Z,27.04
2022-08-10T14:37:04.037Z,26.96
2022-08-10T14:42:38.140Z,26.90
2022-08-10T14:48:31.977Z,26.85
2022-08-10T14:54:06.273Z,26.76
2022-08-10T15:00:23.019Z,26.68
2022-08-10T15:05:39.856Z,26.60
2022-08-10T15:12:14.080Z,26.53
2022-08-10T15:17:05.768Z,26.46
2022-08-10T15:22:40.602Z,26.43
2022-08-10T15:28:16.712Z,26.42
2022-08-10T15:34:10.268Z,26.38
2022-08-10T15:40:23.814Z,26.33
2022-08-10T15:45:55.592Z,26.28
2022-08-10T15:51:54.343Z,26.23
2022-08-10T15:57:28.273Z,26.18
2022-08-10T16:03:13.158Z,26.12
2022-08-10T16:08:56.610Z,26.07
2022-08-10T16:14:31.939Z,26.02
2022-08-10T16:20:05.440Z,25.99
2022-08-10T16:25:48.517Z,25.97
2022-08-10T16:31:27.182Z,25.91
2022-08-10T16:36:59.089Z,25.84
2022-08-10T16:42:32.083Z,25.75
2022-08-10T16:48:05.251Z,25.64
2022-08-10T16:53:42.445Z,25.56
2022-08-10T16:59:17.509Z,25.45
2022-08-10T17:04:52.029Z,25.33
2022-08-10T17:10:23.575Z,25.23
2022-08-10T17:16:01.588Z,25.12
2022-08-10T17:21:36.624Z,25.01
2022-08-10T17:28:05.150Z,24.91
2022-08-10T17:33:14.397Z,24.82
2022-08-10T17:38:50.617Z,24.72
2022-08-10T17:44:22.988Z,24.62
2022-08-10T17:49:57.367Z,24.54
2022-08-10T17:55:34.335Z,24.44
2022-08-10T18:01:38.399Z,24.32
2022-08-10T18:06:59.945Z,23.96
2022-08-10T18:12:39.042Z,23.82
2022-08-10T18:18:12.950Z,23.78
2022-08-10T18:23:44.851Z,23.72
2022-08-10T18:29:27.807Z,23.67
2022-08-10T18:35:00.881Z,23.59
2022-08-10T18:40:38.470Z,23.52
2022-08-10T18:46:15.069Z,23.44
2022-08-10T18:51:47.472Z,23.37
2022-08-10T18:57:24.818Z,23.30
2022-08-10T19:03:23.137Z,23.24
2022-08-10T19:09:46.135Z,23.17
2022-08-10T19:15:24.085Z,23.10
2022-08-10T19:21:23.944Z,23.03
2022-08-10T19:27:04.419Z,22.98
2022-08-10T19:33:22.974Z,22.91
2022-08-10T19:39:09.091Z,22.84
2022-08-10T19:44:53.203Z,22.78
2022-08-10T19:50:59.740Z,22.69
2022-08-10T19:57:05.428Z,22.61
2022-08-10T20:02:59.053Z,22.53
2022-08-10T20:09:01.153Z,22.44
2022-08-10T20:14:38.408Z,22.34
2022-08-10T20:20:13.989Z,22.21
2022-08-10T20:25:54.608Z,22.14
2022-08-10T20:31:47.458Z,22.03
2022-08-10T20:38:01.994Z,21.95
2022-08-10T20:43:22.650Z,21.83
2022-08-10T20:49:05.159Z,21.69
2022-08-10T20:54:51.058Z,21.60
2022-08-10T21:00:23.559Z,21.51
2022-08-10T21:05:59.206Z,21.42
2022-08-10T21:12:03.892Z,21.34
2022-08-10T21:17:50.508Z,21.26
2022-08-10T21:23:30.635Z,21.20
2022-08-10T21:29:37.606Z,21.06
2022-08-10T21:35:36.481Z,20.94
2022-08-10T21:41:56.908Z,20.92
2022-08-10T21:48:06.966Z,20.78
2022-08-10T21:54:14.057Z,20.74
2022-08-10T22:00:45.541Z,20.65
2022-08-10T22:06:41.160Z,20.55
2022-08-10T22:12:51.443Z,20.44
2022-08-10T22:19:01.836Z,20.36
2022-08-10T22:25:17.794Z,20.29
2022-08-10T22:31:40.777Z,20.21
2022-08-10T22:38:12.055Z,20.12
2022-08-10T22:44:01.454Z,20.04
2022-08-10T22:49:33.001Z,19.98
2022-08-10T22:55:34.044Z,19.93
2022-08-10T23:01:40.736Z,19.88
2022-08-10T23:07:18.484Z,19.82
2022-08-10T23:13:11.609Z,19.76
2022-08-10T23:19:09.555Z,19.67
2022-08-10T23:24:53.568Z,19.61
2022-08-10T23:30:33.953Z,19.53
2022-08-10T23:36:34.464Z,19.49
2022-08-10T23:42:06.982Z,19.44
2022-08-10T23:47:43.100Z,19.36
2022-08-10T23:53:14.411Z,19.32
2022-08-10T23:58:51.557Z,19.27
